Time;durP1;ratioP1;P1;durP2;ratioP2;P2;SDS_P1;SDS_P2;PMS_P1;PMS_P2;Temp;Humidity;BMP_temperature;BMP_pressure;BME280_temperature;BME280_humidity;BME280_pressure;Samples;Min_cycle;Max_cycle;Signal;HPM_P1;HPM_P2
2022/06/26 00:01:47;;;;;;;1.50;1.23;;;21.70;99.90;;;;;;4992932;28;20225;-76
2022/06/26 00:04:14;;;;;;;1.20;1.10;;;21.70;99.90;;;;;;4987226;28;20207;-76
2022/06/26 00:06:41;;;;;;;1.00;1.00;;;21.70;99.90;;;;;;4977567;28;20244;-76
2022/06/26 00:09:08;;;;;;;1.00;0.90;;;21.80;99.90;;;;;;4976521;28;20194;-76
2022/06/26 00:11:35;;;;;;;0.98;0.98;;;21.70;99.90;;;;;;4979052;28;20224;-76
2022/06/26 00:14:04;;;;;;;0.70;0.70;;;21.70;99.90;;;;;;4988528;28;20221;-76
2022/06/26 00:16:31;;;;;;;0.90;0.90;;;21.80;99.90;;;;;;4986211;28;20220;-75
2022/06/26 00:18:58;;;;;;;0.90;0.90;;;21.70;99.90;;;;;;4994391;28;20204;-76
2022/06/26 00:21:25;;;;;;;0.77;0.77;;;21.70;99.90;;;;;;4994291;28;20221;-75
2022/06/26 00:23:52;;;;;;;1.80;1.10;;;21.60;99.90;;;;;;4983449;28;20695;-76
2022/06/26 00:26:19;;;;;;;0.98;0.93;;;21.60;99.90;;;;;;5006919;28;20674;-76
2022/06/26 00:28:46;;;;;;;1.63;0.90;;;21.50;99.90;;;;;;4995274;28;20653;-76
2022/06/26 00:31:14;;;;;;;1.20;1.10;;;21.50;99.90;;;;;;4997567;28;20212;-76
2022/06/26 00:33:42;;;;;;;1.17;1.08;;;21.40;99.90;;;;;;4988083;28;20226;-76
2022/06/26 00:36:09;;;;;;;1.05;0.98;;;21.40;99.90;;;;;;4976825;28;20719;-76
2022/06/26 00:38:36;;;;;;;0.80;0.80;;;21.40;99.90;;;;;;4976470;28;20201;-76
2022/06/26 00:41:05;;;;;;;0.70;0.70;;;21.40;99.90;;;;;;4976704;28;20240;-76
2022/06/26 00:43:32;;;;;;;1.02;1.00;;;21.40;99.90;;;;;;4976002;28;20725;-76
2022/06/26 00:45:59;;;;;;;1.35;1.25;;;21.40;99.90;;;;;;4979326;28;20197;-76
2022/06/26 00:48:28;;;;;;;0.80;0.80;;;21.30;99.90;;;;;;4994695;28;20623;-76
2022/06/26 00:50:55;;;;;;;0.88;0.88;;;21.30;99.90;;;;;;4993663;28;20196;-76
2022/06/26 00:53:22;;;;;;;2.05;1.20;;;21.30;99.90;;;;;;4985729;28;20227;-75
2022/06/26 00:55:49;;;;;;;0.95;0.88;;;21.30;99.90;;;;;;4982168;28;20212;-76
2022/06/26 00:58:16;;;;;;;0.85;0.80;;;21.20;99.90;;;;;;4975865;28;20726;-75
2022/06/26 01:00:43;;;;;;;1.90;1.20;;;21.20;99.90;;;;;;4995282;28;20231;-76
2022/06/26 01:03:10;;;;;;;1.80;1.17;;;21.10;99.90;;;;;;4993447;23;20226;-80
2022/06/26 01:05:39;;;;;;;1.17;1.08;;;21.10;99.90;;;;;;4957900;28;20660;-81
2022/06/26 01:08:08;;;;;;;1.55;1.10;;;21.10;99.90;;;;;;4974493;28;20234;-81
2022/06/26 01:10:35;;;;;;;1.63;1.08;;;21.00;99.90;;;;;;4970727;28;20257;-81
2022/06/26 01:13:02;;;;;;;2.35;1.10;;;21.00;99.90;;;;;;4964511;28;20709;-81
2022/06/26 01:15:30;;;;;;;1.30;1.20;;;21.00;99.90;;;;;;4957125;28;20198;-81
2022/06/26 01:17:57;;;;;;;1.30;1.10;;;20.90;99.90;;;;;;4965627;28;20236;-80
2022/06/26 01:20:25;;;;;;;1.08;0.98;;;20.90;99.90;;;;;;4961893;28;20213;-81
2022/06/26 01:23:01;;;;;;;0.90;0.80;;;20.80;99.90;;;;;;4971642;28;20225;-80
2022/06/26 01:25:43;;;;;;;1.15;1.00;;;20.80;99.90;;;;;;4974631;28;20205;-80
2022/06/26 01:28:10;;;;;;;1.33;1.08;;;20.80;99.90;;;;;;4971813;28;20739;-81
2022/06/26 01:30:38;;;;;;;1.67;1.00;;;20.70;99.90;;;;;;4973660;28;20198;-81
2022/06/26 01:33:06;;;;;;;1.25;1.10;;;20.70;99.90;;;;;;4974118;28;20230;-81
2022/06/26 01:35:33;;;;;;;1.50;1.23;;;20.60;99.90;;;;;;4973271;28;20197;-81
2022/06/26 01:38:13;;;;;;;1.30;1.20;;;20.60;99.90;;;;;;4974415;28;20225;-81
2022/06/26 01:40:42;;;;;;;1.10;1.00;;;20.50;99.90;;;;;;4972336;28;20213;-82
2022/06/26 01:43:10;;;;;;;1.10;1.10;;;20.50;99.90;;;;;;4977720;28;20648;-81
2022/06/26 01:45:42;;;;;;;1.73;1.17;;;20.50;99.90;;;;;;4975103;28;20217;-82
2022/06/26 01:48:10;;;;;;;1.10;1.00;;;20.40;99.90;;;;;;4964598;28;20308;-81
2022/06/26 01:50:37;;;;;;;2.53;1.10;;;20.40;99.90;;;;;;4971786;28;20202;-81
2022/06/26 01:53:04;;;;;;;1.52;1.20;;;20.40;99.90;;;;;;4973513;28;20236;-79
2022/06/26 01:55:33;;;;;;;1.38;1.00;;;20.30;99.90;;;;;;4965463;28;20201;-80
2022/06/26 01:58:01;;;;;;;1.10;1.00;;;20.30;99.90;;;;;;4966681;28;20713;-80
2022/06/26 02:00:29;;;;;;;1.10;1.00;;;20.20;99.90;;;;;;4962297;28;22315;-81
2022/06/26 02:02:56;;;;;;;1.48;1.20;;;20.20;99.90;;;;;;4995051;28;20281;-81
2022/06/26 02:05:23;;;;;;;0.98;0.98;;;20.20;99.90;;;;;;4982577;28;20664;-80
2022/06/26 02:07:50;;;;;;;1.58;1.48;;;20.20;99.90;;;;;;4976916;28;20217;-81
2022/06/26 02:15:49;;;;;;;0.88;0.88;;;20.20;99.90;;;;;;4963038;28;20732;-81
2022/06/26 02:18:16;;;;;;;0.95;0.95;;;20.20;99.90;;;;;;4974031;28;20237;-80
2022/06/26 02:20:44;;;;;;;1.33;1.20;;;20.30;99.90;;;;;;4957938;28;20229;-81
2022/06/26 02:23:12;;;;;;;2.25;1.10;;;20.30;99.90;;;;;;4969213;28;20712;-81
2022/06/26 02:25:39;;;;;;;1.23;1.13;;;20.20;99.90;;;;;;4971799;28;20218;-81
2022/06/26 02:28:08;;;;;;;1.02;1.00;;;20.20;99.90;;;;;;4977568;28;20229;-81
2022/06/26 02:30:35;;;;;;;1.20;1.10;;;20.20;99.90;;;;;;4958410;28;20688;-81
2022/06/26 02:33:03;;;;;;;1.20;1.08;;;20.20;99.90;;;;;;4963881;28;20608;-81
2022/06/26 02:35:31;;;;;;;1.70;1.08;;;20.10;99.90;;;;;;4976540;28;20206;-82
2022/06/26 02:37:59;;;;;;;1.40;1.15;;;20.10;99.90;;;;;;4964943;28;20229;-81
2022/06/26 02:40:28;;;;;;;1.33;1.23;;;20.10;99.90;;;;;;4968216;28;20205;-81
2022/06/26 02:42:55;;;;;;;1.30;1.13;;;20.00;99.90;;;;;;4977051;28;20234;-81
2022/06/26 02:45:24;;;;;;;1.05;0.95;;;20.00;99.90;;;;;;4960556;28;20214;-81
2022/06/26 02:47:51;;;;;;;1.08;0.98;;;19.90;99.90;;;;;;4957623;28;20230;-81
2022/06/26 02:50:18;;;;;;;1.10;0.98;;;19.90;99.90;;;;;;4966829;28;20197;-82
2022/06/26 02:52:45;;;;;;;1.20;1.10;;;19.90;99.90;;;;;;4967483;28;20217;-82
2022/06/26 02:55:13;;;;;;;1.00;1.00;;;19.80;99.90;;;;;;4979160;28;20207;-81
2022/06/26 02:57:40;;;;;;;0.90;0.90;;;19.80;99.90;;;;;;4968558;28;20217;-81
2022/06/26 03:00:10;;;;;;;1.20;1.10;;;19.80;99.90;;;;;;4968175;28;20202;-82
2022/06/26 03:02:38;;;;;;;1.27;1.17;;;19.80;99.90;;;;;;4963907;28;20234;-82
2022/06/26 03:05:07;;;;;;;1.55;1.42;;;19.80;99.90;;;;;;4968952;28;20206;-82
2022/06/26 03:07:34;;;;;;;1.25;1.13;;;19.70;99.90;;;;;;4971360;28;20233;-81
2022/06/26 03:10:01;;;;;;;1.40;1.30;;;19.70;99.90;;;;;;4972938;28;20198;-82
2022/06/26 03:12:28;;;;;;;1.20;1.10;;;19.70;99.90;;;;;;4971752;28;20230;-81
2022/06/26 03:14:55;;;;;;;2.25;1.15;;;19.60;99.90;;;;;;4985757;28;20221;-81
2022/06/26 03:17:23;;;;;;;1.70;1.15;;;19.60;99.90;;;;;;4967254;28;20226;-81
2022/06/26 03:19:51;;;;;;;1.20;1.10;;;19.60;99.90;;;;;;4970099;28;20206;-81
2022/06/26 03:22:18;;;;;;;1.08;1.00;;;19.60;99.90;;;;;;4981390;28;20255;-81
2022/06/26 03:24:46;;;;;;;1.20;1.10;;;19.60;99.90;;;;;;4972879;28;20649;-82
2022/06/26 03:27:13;;;;;;;2.05;1.45;;;19.60;99.90;;;;;;4967527;28;20681;-81
2022/06/26 03:29:40;;;;;;;1.00;1.00;;;19.70;99.90;;;;;;4965570;28;20206;-82
2022/06/26 03:32:08;;;;;;;1.15;1.05;;;19.70;99.90;;;;;;4984017;28;20224;-81
2022/06/26 03:34:35;;;;;;;1.42;1.23;;;19.80;99.90;;;;;;4968899;28;20209;-81
2022/06/26 03:37:04;;;;;;;1.58;1.00;;;19.80;99.90;;;;;;4968476;28;20645;-82
2022/06/26 03:39:31;;;;;;;1.13;1.00;;;19.80;99.90;;;;;;4974760;28;20198;-82
2022/06/26 03:42:00;;;;;;;1.23;1.13;;;19.80;99.90;;;;;;4976632;28;20251;-81
2022/06/26 03:44:28;;;;;;;1.42;1.20;;;19.80;99.90;;;;;;4971396;28;20201;-81
2022/06/26 03:46:55;;;;;;;1.67;1.30;;;19.80;99.90;;;;;;4962060;28;20229;-81
2022/06/26 03:49:23;;;;;;;1.23;1.13;;;19.80;99.90;;;;;;4969054;28;20198;-81
2022/06/26 03:55:18;;;;;;;1.25;1.10;;;19.80;99.90;;;;;;4964156;28;20201;-81
2022/06/26 05:03:28;;;;;;;1.65;1.35;;;21.30;99.90;;;;;;4569148;31;20763;-81
2022/06/26 05:27:16;;;;;;;1.42;1.33;;;21.90;99.90;;;;;;4637384;30;20234;-80
2022/06/26 05:32:46;;;;;;;2.92;1.55;;;22.00;99.90;;;;;;4745214;30;20246;-80
2022/06/26 05:47:43;;;;;;;1.63;1.50;;;22.10;99.90;;;;;;4860106;29;20220;-80
2022/06/26 05:53:27;;;;;;;1.25;1.15;;;22.30;99.90;;;;;;4895201;29;20668;-80
2022/06/26 05:56:31;;;;;;;1.52;1.42;;;22.50;99.90;;;;;;4909614;29;20231;-80
2022/06/26 06:10:36;;;;;;;2.65;2.08;;;22.60;99.90;;;;;;4957456;28;20201;-80
2022/06/26 06:13:04;;;;;;;2.03;1.52;;;22.50;99.90;;;;;;4975406;28;20224;-80
2022/06/26 06:15:31;;;;;;;1.60;1.50;;;22.60;99.90;;;;;;4974550;28;20201;-80
2022/06/26 06:17:58;;;;;;;1.67;1.52;;;22.60;99.90;;;;;;4959115;28;20208;-80
2022/06/26 06:20:25;;;;;;;2.05;1.55;;;22.70;99.90;;;;;;4968419;28;20224;-81
2022/06/26 06:22:55;;;;;;;1.50;1.25;;;22.80;99.90;;;;;;4969226;28;20222;-80
2022/06/26 06:29:05;;;;;;;1.95;1.60;;;23.20;99.90;;;;;;4970341;28;20679;-80
2022/06/26 06:31:55;;;;;;;1.63;1.52;;;23.30;99.90;;;;;;4969641;28;20225;-80
2022/06/26 06:34:22;;;;;;;1.70;1.60;;;23.40;99.90;;;;;;4967350;28;20973;-79
2022/06/26 06:36:49;;;;;;;2.75;1.88;;;23.50;99.90;;;;;;4962865;28;20205;-80
2022/06/26 06:39:16;;;;;;;1.65;1.55;;;23.50;99.90;;;;;;4963007;28;20584;-80
2022/06/26 06:41:43;;;;;;;1.88;1.48;;;23.50;99.90;;;;;;4960149;28;20232;-80
2022/06/26 06:44:12;;;;;;;2.05;1.85;;;23.60;99.90;;;;;;4956203;28;20464;-80
2022/06/26 06:46:39;;;;;;;2.28;1.60;;;23.70;99.90;;;;;;4962766;28;20202;-80
2022/06/26 06:49:06;;;;;;;2.65;1.67;;;23.60;99.90;;;;;;4963585;28;20609;-80
2022/06/26 06:51:33;;;;;;;3.00;1.77;;;23.70;99.90;;;;;;4971289;28;20225;-79
2022/06/26 06:54:00;;;;;;;3.03;1.92;;;23.80;99.90;;;;;;4975666;28;20217;-80
2022/06/26 06:56:27;;;;;;;1.83;1.60;;;23.90;99.90;;;;;;4975877;28;20221;-78
2022/06/26 06:58:54;;;;;;;2.83;1.55;;;24.00;99.90;;;;;;4970687;28;20202;-80
2022/06/26 07:01:23;;;;;;;2.67;1.40;;;24.10;99.90;;;;;;4977563;28;20220;-80
2022/06/26 07:30:21;;;;;;;1.95;1.42;;;25.10;99.90;;;;;;5369519;23;20275;-85
2022/06/26 07:32:48;;;;;;;1.75;1.38;;;25.20;99.90;;;;;;4975309;28;20762;-84
2022/06/26 07:35:15;;;;;;;1.92;1.52;;;25.30;99.90;;;;;;4976062;28;20233;-84
2022/06/26 07:37:46;;;;;;;1.67;1.52;;;25.40;99.90;;;;;;4968314;28;20542;-84
2022/06/26 07:40:13;;;;;;;2.38;1.60;;;25.40;99.90;;;;;;4973230;28;20224;-85
2022/06/26 07:42:40;;;;;;;1.60;1.40;;;25.50;99.90;;;;;;4975318;28;20580;-85
2022/06/26 07:45:09;;;;;;;2.13;1.40;;;25.70;99.90;;;;;;4971314;28;20259;-86
2022/06/26 07:47:38;;;;;;;1.60;1.45;;;25.70;99.90;;;;;;4970181;28;20213;-85
2022/06/26 07:50:06;;;;;;;1.58;1.48;;;25.80;99.90;;;;;;4970936;28;21050;-87
2022/06/26 07:52:33;;;;;;;1.67;1.58;;;25.90;99.90;;;;;;4970807;28;20209;-87
2022/06/26 07:55:00;;;;;;;1.23;1.13;;;26.00;99.90;;;;;;4968477;28;20217;-87
2022/06/26 07:57:27;;;;;;;1.98;1.58;;;26.20;99.90;;;;;;4969059;28;20202;-90
2022/06/26 07:59:55;;;;;;;2.55;1.50;;;26.20;99.90;;;;;;4965007;28;20245;-88
2022/06/26 08:02:22;;;;;;;1.92;1.23;;;26.20;99.90;;;;;;4966992;28;20233;-87
2022/06/26 08:04:50;;;;;;;1.77;1.60;;;26.20;99.90;;;;;;4962517;28;20226;-88
2022/06/26 08:07:17;;;;;;;1.67;1.50;;;26.20;99.90;;;;;;4965628;28;20209;-90
2022/06/26 08:09:44;;;;;;;2.38;1.70;;;26.20;99.90;;;;;;4965077;28;20237;-89
2022/06/26 08:12:12;;;;;;;1.63;1.50;;;26.30;99.90;;;;;;4966159;28;20699;-88
2022/06/26 08:14:39;;;;;;;2.17;1.48;;;26.40;99.90;;;;;;4963632;28;20221;-87
2022/06/26 08:17:06;;;;;;;2.45;1.58;;;26.30;99.90;;;;;;4964005;28;20220;-89
2022/06/26 08:19:33;;;;;;;2.05;1.60;;;26.30;99.90;;;;;;4965261;28;20221;-89
2022/06/26 08:22:02;;;;;;;1.65;1.55;;;26.50;99.90;;;;;;4967466;28;20198;-87
2022/06/26 08:24:29;;;;;;;1.50;1.40;;;26.40;99.90;;;;;;4962447;28;20199;-90
2022/06/26 08:26:56;;;;;;;1.77;1.42;;;26.50;99.90;;;;;;4963548;28;20217;-88
2022/06/26 08:29:23;;;;;;;1.90;1.45;;;26.70;99.90;;;;;;4963651;28;20209;-89
2022/06/26 08:31:50;;;;;;;1.95;1.40;;;26.90;99.90;;;;;;4962957;28;20214;-89
2022/06/26 08:34:17;;;;;;;1.95;1.38;;;27.00;99.90;;;;;;4956100;28;20204;-90
2022/06/26 08:36:44;;;;;;;1.52;1.42;;;27.10;99.90;;;;;;4965241;28;20225;-88
2022/06/26 08:39:13;;;;;;;1.30;1.20;;;27.10;99.90;;;;;;4961590;28;20233;-88
2022/06/26 08:41:42;;;;;;;1.23;1.13;;;27.10;99.90;;;;;;4961819;28;20232;-88
2022/06/26 08:44:09;;;;;;;1.40;1.30;;;27.10;99.90;;;;;;4960558;28;20233;-88
2022/06/26 08:46:39;;;;;;;2.60;1.58;;;27.20;99.90;;;;;;4960706;28;20697;-89
2022/06/26 08:49:10;;;;;;;1.50;1.20;;;27.10;99.90;;;;;;4962966;28;20213;-87
2022/06/26 08:51:38;;;;;;;1.48;1.38;;;27.30;99.90;;;;;;4967819;28;20220;-88
2022/06/26 08:54:06;;;;;;;1.52;1.20;;;27.40;99.90;;;;;;4963459;28;20194;-89
2022/06/26 08:56:36;;;;;;;2.55;1.20;;;27.80;99.90;;;;;;4962798;28;20225;-89
2022/06/26 08:59:03;;;;;;;1.90;1.40;;;27.90;99.90;;;;;;4967464;28;20664;-88
2022/06/26 09:01:30;;;;;;;1.48;1.10;;;27.80;99.90;;;;;;4956131;28;20229;-89
2022/06/26 09:03:58;;;;;;;2.97;1.38;;;27.90;99.90;;;;;;4956796;28;20229;-90
2022/06/26 09:06:27;;;;;;;1.23;1.13;;;27.80;99.90;;;;;;4957978;28;20222;-89
2022/06/26 09:08:54;;;;;;;1.48;1.00;;;27.80;99.90;;;;;;4963342;28;20201;-88
2022/06/26 09:11:22;;;;;;;2.67;1.30;;;28.10;99.90;;;;;;4960641;28;20696;-89
2022/06/26 09:13:53;;;;;;;2.13;1.42;;;28.00;99.90;;;;;;4956513;28;20203;-89
2022/06/26 09:16:30;;;;;;;1.38;1.27;;;28.10;99.90;;;;;;4953517;28;20226;-88
2022/06/26 09:19:06;;;;;;;1.55;1.30;;;28.20;99.90;;;;;;4960681;28;20751;-87
2022/06/26 09:21:33;;;;;;;1.83;1.17;;;28.20;99.90;;;;;;4966621;28;20228;-88
2022/06/26 09:24:00;;;;;;;3.80;1.23;;;28.40;99.90;;;;;;4961348;28;20230;-81
2022/06/26 09:26:28;;;;;;;2.25;1.17;;;28.50;99.90;;;;;;4962385;28;20241;-80
2022/06/26 09:28:57;;;;;;;1.80;1.20;;;28.60;99.90;;;;;;4954787;28;20658;-79
2022/06/26 09:31:24;;;;;;;1.65;1.48;;;28.70;99.90;;;;;;4958697;28;20708;-80
2022/06/26 09:33:51;;;;;;;1.63;1.02;;;28.90;99.90;;;;;;4960467;28;20203;-81
2022/06/26 09:36:19;;;;;;;1.83;1.33;;;29.00;99.90;;;;;;4958161;28;20226;-82
2022/06/26 09:38:50;;;;;;;2.42;1.30;;;29.00;99.90;;;;;;4953692;28;20198;-82
2022/06/26 09:41:18;;;;;;;1.30;1.20;;;29.00;99.90;;;;;;4955087;28;20229;-79
2022/06/26 09:43:46;;;;;;;2.72;1.10;;;28.90;99.90;;;;;;4958823;28;20229;-79
2022/06/26 09:46:15;;;;;;;2.10;1.40;;;28.90;99.90;;;;;;4959513;28;20221;-82
2022/06/26 09:48:43;;;;;;;2.03;1.20;;;28.90;99.90;;;;;;4961896;28;20217;-84
2022/06/26 09:51:13;;;;;;;1.63;1.20;;;28.80;99.90;;;;;;4957774;28;20275;-85
2022/06/26 09:53:41;;;;;;;2.72;1.42;;;29.10;99.90;;;;;;4960177;28;20593;-86
2022/06/26 09:56:09;;;;;;;1.40;1.30;;;29.10;99.90;;;;;;4961219;28;20228;-86
2022/06/26 09:58:36;;;;;;;2.78;1.50;;;29.30;99.90;;;;;;4958407;28;20205;-85
2022/06/26 10:06:36;;;;;;;1.30;1.15;;;29.40;99.90;;;;;;4959335;28;20232;-86
2022/06/26 10:09:06;;;;;;;2.25;1.40;;;29.50;99.90;;;;;;4959530;28;20209;-86
2022/06/26 10:11:35;;;;;;;1.85;1.55;;;29.60;99.90;;;;;;4958738;28;20271;-83
2022/06/26 10:14:07;;;;;;;3.60;1.73;;;29.70;99.90;;;;;;4955441;28;20571;-84
2022/06/26 10:17:08;;;;;;;1.60;1.30;;;29.90;99.90;;;;;;4960646;28;20229;-83
2022/06/26 10:19:44;;;;;;;1.83;1.27;;;30.00;99.90;;;;;;4956933;28;20216;-86
2022/06/26 10:22:11;;;;;;;1.00;1.00;;;30.10;99.90;;;;;;4954630;28;20214;-85
2022/06/26 10:24:50;;;;;;;2.53;1.48;;;30.30;99.90;;;;;;4957752;28;20222;-90
2022/06/26 10:27:17;;;;;;;1.52;1.20;;;30.60;99.90;;;;;;4964544;28;20241;-83
2022/06/26 10:29:44;;;;;;;2.63;1.27;;;30.60;99.90;;;;;;4963934;28;20728;-83
2022/06/26 10:32:22;;;;;;;0.88;0.88;;;30.80;99.90;;;;;;4968585;28;20230;-82
2022/06/26 10:34:56;;;;;;;1.02;1.00;;;30.60;99.90;;;;;;4958079;28;20213;-83
2022/06/26 10:37:24;;;;;;;1.90;1.33;;;30.80;99.90;;;;;;4966798;28;20759;-82
2022/06/26 10:39:52;;;;;;;1.70;1.30;;;30.90;99.90;;;;;;4968984;28;20715;-83
2022/06/26 10:45:11;;;;;;;2.60;1.48;;;31.20;99.90;;;;;;4966138;28;20314;-82
2022/06/26 10:47:44;;;;;;;1.60;1.27;;;31.10;99.90;;;;;;4966241;28;20775;-81
2022/06/26 10:50:29;;;;;;;1.77;1.20;;;31.20;99.90;;;;;;4966927;28;20653;-82
2022/06/26 10:53:11;;;;;;;2.53;1.50;;;31.30;99.90;;;;;;4971557;28;20229;-81
2022/06/26 10:55:39;;;;;;;1.65;1.40;;;31.30;99.90;;;;;;4965587;28;20198;-82
2022/06/26 10:58:06;;;;;;;2.38;1.20;;;31.40;99.90;;;;;;4964973;28;20205;-83
2022/06/26 11:00:33;;;;;;;2.22;1.30;;;31.60;99.90;;;;;;4969434;28;20290;-82
2022/06/26 11:03:00;;;;;;;2.10;1.33;;;31.60;99.90;;;;;;4969003;28;20248;-80
2022/06/26 11:05:30;;;;;;;1.90;1.35;;;31.80;99.90;;;;;;4961697;28;20233;-79
2022/06/26 11:07:57;;;;;;;1.95;1.40;;;32.20;99.90;;;;;;4965446;28;20225;-78
2022/06/26 11:10:26;;;;;;;1.30;1.02;;;32.40;99.90;;;;;;4963278;28;20224;-79
2022/06/26 11:12:54;;;;;;;3.40;1.40;;;32.70;99.90;;;;;;4966833;28;20229;-76
2022/06/26 11:15:24;;;;;;;2.28;1.20;;;32.50;99.90;;;;;;4973264;28;20194;-77
2022/06/26 11:17:59;;;;;;;2.22;1.30;;;32.20;99.90;;;;;;4965987;28;20304;-77
2022/06/26 11:20:49;;;;;;;2.40;1.40;;;32.10;99.90;;;;;;4967486;28;20216;-77
2022/06/26 11:23:20;;;;;;;2.38;1.25;;;31.90;99.90;;;;;;4968885;28;20241;-77
2022/06/26 11:25:48;;;;;;;2.08;1.08;;;32.00;99.90;;;;;;4965294;28;20684;-79
2022/06/26 11:28:17;;;;;;;2.90;1.30;;;31.90;99.90;;;;;;4967177;28;20221;-81
2022/06/26 11:30:46;;;;;;;2.55;1.40;;;31.80;99.90;;;;;;4967372;28;20222;-81
2022/06/26 11:33:13;;;;;;;3.97;1.38;;;31.70;99.90;;;;;;4967123;28;20213;-81
2022/06/26 11:35:41;;;;;;;2.15;1.33;;;31.40;99.90;;;;;;4967587;28;20201;-81
2022/06/26 11:38:17;;;;;;;2.13;1.40;;;31.30;99.90;;;;;;4971415;28;20272;-81
2022/06/26 11:40:47;;;;;;;2.28;1.25;;;31.20;99.90;;;;;;4965273;28;20201;-81
2022/06/26 11:43:16;;;;;;;2.22;1.38;;;31.40;99.90;;;;;;4963145;28;20689;-81
2022/06/26 11:45:43;;;;;;;2.10;1.10;;;31.80;99.90;;;;;;4968627;28;20636;-81
2022/06/26 11:48:16;;;;;;;2.20;1.20;;;31.90;99.90;;;;;;4961624;28;20226;-81
2022/06/26 11:50:45;;;;;;;3.10;1.50;;;31.90;99.90;;;;;;4964894;28;20201;-82
2022/06/26 11:53:19;;;;;;;2.42;1.25;;;31.90;99.90;;;;;;4963458;28;20222;-82
2022/06/26 11:55:50;;;;;;;2.80;1.50;;;32.10;99.90;;;;;;4968769;28;20683;-81
2022/06/26 11:58:17;;;;;;;3.28;1.05;;;32.10;99.90;;;;;;4967111;28;20614;-81
2022/06/26 12:00:45;;;;;;;4.90;1.40;;;31.90;99.90;;;;;;4967767;28;20206;-81
2022/06/26 12:03:14;;;;;;;5.60;1.45;;;31.80;99.90;;;;;;4964137;28;20226;-82
2022/06/26 12:05:45;;;;;;;2.53;1.50;;;31.70;99.90;;;;;;4967438;28;20197;-82
2022/06/26 12:08:17;;;;;;;2.15;1.27;;;31.70;99.90;;;;;;4964285;28;20226;-82
2022/06/26 12:10:50;;;;;;;6.40;1.35;;;31.90;99.90;;;;;;4967679;28;20281;-82
2022/06/26 12:13:25;;;;;;;1.98;1.30;;;32.10;99.90;;;;;;4963770;28;20260;-82
2022/06/26 12:15:52;;;;;;;2.97;1.40;;;32.20;99.90;;;;;;4966961;28;20201;-80
2022/06/26 12:18:20;;;;;;;2.08;1.35;;;32.10;99.90;;;;;;4965358;28;20577;-80
2022/06/26 12:20:51;;;;;;;3.38;1.60;;;32.20;99.90;;;;;;4970223;28;20202;-80
2022/06/26 12:23:18;;;;;;;3.15;1.30;;;32.00;99.90;;;;;;4964936;28;20229;-80
2022/06/26 12:25:49;;;;;;;1.80;1.40;;;31.90;99.90;;;;;;4967319;28;20205;-79
2022/06/26 12:28:24;;;;;;;3.13;1.33;;;31.80;99.90;;;;;;4966983;28;20229;-80
2022/06/26 12:30:51;;;;;;;2.83;1.23;;;31.70;99.90;;;;;;4962913;28;20237;-81
2022/06/26 12:33:19;;;;;;;3.58;1.52;;;31.80;99.90;;;;;;4964950;28;20217;-79
2022/06/26 12:35:46;;;;;;;3.10;1.13;;;31.80;99.90;;;;;;4960634;28;20202;-78
2022/06/26 12:38:18;;;;;;;4.18;1.55;;;32.00;99.90;;;;;;4967231;28;20217;-79
2022/06/26 12:40:45;;;;;;;1.90;1.10;;;32.20;99.90;;;;;;4966200;28;20197;-78
2022/06/26 12:43:12;;;;;;;1.63;1.20;;;32.40;99.90;;;;;;4968335;28;20217;-78
2022/06/26 12:45:41;;;;;;;3.03;1.35;;;32.40;99.90;;;;;;4961670;28;20201;-76
2022/06/26 12:48:08;;;;;;;3.05;1.35;;;32.40;99.90;;;;;;4967266;28;20735;-77
2022/06/26 12:50:35;;;;;;;4.22;1.45;;;32.40;99.90;;;;;;4965607;28;20208;-79
2022/06/26 12:53:03;;;;;;;2.45;1.52;;;32.40;99.90;;;;;;4964287;28;20218;-78
2022/06/26 12:55:30;;;;;;;2.40;1.38;;;32.30;99.90;;;;;;4965297;28;20581;-79
2022/06/26 12:57:57;;;;;;;6.20;1.50;;;32.40;99.90;;;;;;4962021;28;20221;-78
2022/06/26 13:00:25;;;;;;;2.30;1.42;;;32.50;99.90;;;;;;4964839;28;20216;-77
2022/06/26 13:02:53;;;;;;;3.05;1.58;;;32.50;99.90;;;;;;4969058;28;20231;-78
2022/06/26 13:05:20;;;;;;;4.72;1.65;;;32.70;99.90;;;;;;4962241;28;20746;-79
2022/06/26 13:07:48;;;;;;;2.60;1.35;;;32.70;99.90;;;;;;4968804;28;20695;-79
2022/06/26 13:10:15;;;;;;;3.78;1.70;;;32.70;99.00;;;;;;4968229;28;20571;-79
2022/06/26 13:12:42;;;;;;;2.72;1.45;;;32.70;98.80;;;;;;4968487;28;20671;-80
2022/06/26 13:15:10;;;;;;;4.78;1.65;;;32.70;98.40;;;;;;4941727;28;20199;-79
2022/06/26 13:17:37;;;;;;;4.00;1.60;;;32.60;97.90;;;;;;4961823;28;21001;-79
2022/06/26 13:20:08;;;;;;;3.63;1.60;;;32.60;98.20;;;;;;4967638;28;20624;-80
2022/06/26 13:22:35;;;;;;;3.58;1.48;;;32.70;97.90;;;;;;4960108;28;20234;-79
2022/06/26 13:25:03;;;;;;;4.45;1.50;;;32.70;97.90;;;;;;4963157;28;20597;-79
2022/06/26 13:27:30;;;;;;;2.63;1.30;;;32.60;97.70;;;;;;4968201;28;20221;-79
2022/06/26 13:29:57;;;;;;;3.10;1.60;;;32.60;98.30;;;;;;4969419;28;20233;-79
2022/06/26 13:32:24;;;;;;;4.35;1.27;;;32.60;98.00;;;;;;4963460;28;20570;-79
2022/06/26 13:34:51;;;;;;;4.68;1.65;;;32.60;97.40;;;;;;4964334;28;20190;-79
2022/06/26 13:37:20;;;;;;;5.13;1.70;;;32.60;98.10;;;;;;4962611;28;20221;-80
2022/06/26 13:39:47;;;;;;;6.28;1.67;;;32.60;97.80;;;;;;4967595;28;20244;-79
2022/06/26 13:42:14;;;;;;;6.88;1.73;;;32.40;96.50;;;;;;4966848;28;20226;-79
2022/06/26 13:44:41;;;;;;;7.90;1.83;;;32.20;97.90;;;;;;4965193;28;20229;-79
2022/06/26 13:47:08;;;;;;;4.60;1.77;;;32.30;97.90;;;;;;4962939;28;20234;-79
2022/06/26 13:49:37;;;;;;;3.53;1.60;;;32.40;97.50;;;;;;4968412;28;20679;-79
2022/06/26 13:52:04;;;;;;;5.30;1.95;;;32.50;97.50;;;;;;4961971;28;20217;-79
2022/06/26 13:54:33;;;;;;;5.22;1.92;;;32.50;97.80;;;;;;4967769;28;20201;-79
2022/06/26 13:57:00;;;;;;;3.90;1.90;;;32.50;97.20;;;;;;4968473;28;21264;-79
2022/06/26 13:59:27;;;;;;;6.38;2.10;;;32.60;97.60;;;;;;4969555;28;20212;-79
2022/06/26 14:01:55;;;;;;;4.10;1.67;;;32.50;97.50;;;;;;4970995;28;20225;-80
2022/06/26 14:04:22;;;;;;;5.38;1.70;;;32.60;97.00;;;;;;4968725;28;20567;-80
2022/06/26 14:06:49;;;;;;;3.97;1.90;;;32.60;97.30;;;;;;4971637;28;20252;-79
2022/06/26 14:09:16;;;;;;;7.47;1.90;;;32.60;96.40;;;;;;4969650;28;20204;-79
2022/06/26 14:11:45;;;;;;;8.27;2.33;;;32.60;96.70;;;;;;4966277;28;20632;-78
2022/06/26 14:14:12;;;;;;;7.45;2.38;;;32.40;96.20;;;;;;4970128;28;20201;-78
2022/06/26 14:16:39;;;;;;;8.77;1.80;;;32.40;96.60;;;;;;4967477;28;20218;-78
2022/06/26 14:19:06;;;;;;;6.03;2.25;;;32.50;96.40;;;;;;4969259;28;20265;-77
2022/06/26 14:21:34;;;;;;;8.20;2.20;;;32.40;96.50;;;;;;4967920;28;20225;-78
2022/06/26 14:26:47;;;;;;;6.38;1.92;;;32.30;96.60;;;;;;4966904;28;20700;-78
2022/06/26 14:29:14;;;;;;;5.00;1.73;;;32.50;96.40;;;;;;4968237;28;20231;-78
2022/06/26 14:31:41;;;;;;;5.88;1.88;;;32.60;96.10;;;;;;4969059;28;20225;-78
2022/06/26 14:34:08;;;;;;;8.43;1.50;;;32.50;95.90;;;;;;4970273;28;20190;-75
2022/06/26 14:36:35;;;;;;;9.68;2.08;;;32.20;95.40;;;;;;4963449;28;20225;-76
2022/06/26 14:39:03;;;;;;;7.72;2.78;;;32.00;95.20;;;;;;4967099;28;20204;-77
2022/06/26 14:41:30;;;;;;;9.20;2.38;;;31.70;95.40;;;;;;4968539;28;20197;-76
2022/06/26 14:43:58;;;;;;;8.52;2.50;;;31.60;95.40;;;;;;4966888;28;20201;-78
2022/06/26 14:46:27;;;;;;;6.45;2.40;;;31.40;95.20;;;;;;4968606;28;20190;-81
2022/06/26 14:48:54;;;;;;;9.63;2.28;;;31.20;95.60;;;;;;4969962;28;20671;-81
2022/06/26 14:51:21;;;;;;;7.78;2.28;;;31.20;95.40;;;;;;4967996;28;20214;-80
2022/06/26 14:53:48;;;;;;;5.65;2.15;;;31.10;95.60;;;;;;4971392;28;20231;-81
2022/06/26 14:56:15;;;;;;;6.20;1.98;;;31.20;95.70;;;;;;4966559;28;20197;-77
2022/06/26 14:58:42;;;;;;;5.47;2.03;;;31.20;95.80;;;;;;4969834;28;20256;-79
2022/06/26 15:01:11;;;;;;;8.32;2.47;;;31.30;95.30;;;;;;4968014;28;20561;-80
2022/06/26 15:03:38;;;;;;;6.05;2.17;;;31.30;95.70;;;;;;4963304;28;20222;-80
2022/06/26 15:06:05;;;;;;;5.05;2.10;;;31.30;94.80;;;;;;4962752;28;20221;-81
2022/06/26 15:08:32;;;;;;;8.57;2.47;;;31.30;95.20;;;;;;4970477;28;20726;-80
2022/06/26 15:10:59;;;;;;;9.50;2.70;;;31.40;95.20;;;;;;4960402;28;20742;-81
2022/06/26 15:13:26;;;;;;;9.50;2.53;;;31.40;94.50;;;;;;4968705;28;20218;-80
2022/06/26 15:15:53;;;;;;;9.35;2.35;;;31.40;94.20;;;;;;4967849;28;20198;-80
2022/06/26 15:18:22;;;;;;;7.45;2.10;;;31.40;94.10;;;;;;4970133;28;20354;-80
2022/06/26 15:20:49;;;;;;;7.68;2.47;;;31.40;94.20;;;;;;4965777;28;20285;-80
2022/06/26 15:23:16;;;;;;;5.68;2.00;;;31.50;94.20;;;;;;4968552;28;20253;-79
2022/06/26 15:25:43;;;;;;;6.25;1.85;;;31.50;93.60;;;;;;4962788;28;20214;-79
2022/06/26 15:28:12;;;;;;;8.50;2.33;;;31.50;93.70;;;;;;4970396;28;20225;-81
2022/06/26 15:30:39;;;;;;;7.43;2.28;;;31.40;93.30;;;;;;4962469;28;20248;-80
2022/06/26 15:33:06;;;;;;;7.65;2.38;;;31.40;93.30;;;;;;4970674;28;20241;-79
2022/06/26 15:35:35;;;;;;;9.40;2.72;;;31.40;93.80;;;;;;4970527;28;20205;-79
2022/06/26 15:38:02;;;;;;;9.52;2.33;;;31.40;93.70;;;;;;4962782;28;20372;-79
2022/06/26 15:40:30;;;;;;;9.73;2.25;;;31.40;93.10;;;;;;4967544;28;20663;-79
2022/06/26 15:42:57;;;;;;;11.55;2.60;;;31.40;93.70;;;;;;4967016;28;20236;-78